Time;durP1;ratioP1;P1;durP2;ratioP2;P2;SDS_P1;SDS_P2;PMS_P1;PMS_P2;Temp;Humidity;BMP_temperature;BMP_pressure;BME280_temperature;BME280_humidity;BME280_pressure;Samples;Min_cycle;Max_cycle;Signal;HPM_P1;HPM_P2
2021/07/23 00:00:05;;;;;;;497.92;286.80;;;16.00;99.90;;;;;;8295393;28;20496;-63
2021/07/23 00:04:05;;;;;;;492.23;280.35;;;16.00;99.90;;;;;;8295405;28;20026;-63
2021/07/23 00:08:06;;;;;;;493.10;278.85;;;15.70;99.90;;;;;;8293251;28;20400;-63
2021/07/23 00:12:07;;;;;;;518.10;273.38;;;15.70;99.90;;;;;;8295098;28;20045;-63
2021/07/23 00:16:07;;;;;;;511.67;271.80;;;15.60;99.90;;;;;;8294140;28;20029;-63
2021/07/23 00:20:08;;;;;;;560.17;272.85;;;15.40;99.90;;;;;;8294893;28;20042;-63
2021/07/23 00:24:09;;;;;;;508.90;273.13;;;15.40;99.90;;;;;;8294765;28;20026;-63
2021/07/23 00:28:09;;;;;;;495.98;271.27;;;15.20;99.90;;;;;;8294684;28;20030;-63
2021/07/23 00:32:10;;;;;;;501.40;271.73;;;15.20;99.90;;;;;;8294724;28;20061;-63
2021/07/23 00:36:10;;;;;;;495.52;272.20;;;15.20;99.90;;;;;;8294589;28;20113;-63
2021/07/23 00:40:12;;;;;;;503.20;270.75;;;15.30;99.90;;;;;;8293933;28;20030;-63
2021/07/23 00:44:12;;;;;;;501.08;272.80;;;15.20;99.90;;;;;;8292382;28;20033;-63
2021/07/23 00:48:14;;;;;;;516.65;274.25;;;15.20;99.90;;;;;;8293584;28;20516;-63
2021/07/23 00:52:14;;;;;;;502.58;273.00;;;15.10;99.90;;;;;;8293903;28;20029;-63
2021/07/23 00:56:15;;;;;;;494.67;266.85;;;15.00;99.90;;;;;;8294748;28;20069;-63
2021/07/23 01:00:16;;;;;;;506.42;266.15;;;15.00;99.90;;;;;;8293877;28;20030;-63
2021/07/23 01:04:17;;;;;;;508.15;266.75;;;15.10;99.90;;;;;;8294440;28;20034;-63
2021/07/23 01:08:17;;;;;;;510.83;268.63;;;15.00;99.90;;;;;;8293536;28;20049;-63
2021/07/23 01:12:18;;;;;;;497.83;261.95;;;15.10;99.90;;;;;;8293790;28;20021;-63
2021/07/23 01:16:19;;;;;;;527.78;273.75;;;15.00;99.90;;;;;;8286445;28;20113;-63
2021/07/23 01:20:23;;;;;;;553.53;261.75;;;15.00;99.90;;;;;;8291542;28;20026;-63
2021/07/23 01:24:25;;;;;;;526.65;259.52;;;15.20;99.90;;;;;;8293074;28;20037;-63
2021/07/23 01:28:28;;;;;;;500.17;262.95;;;15.00;99.90;;;;;;8275552;28;20029;-63
2021/07/23 01:32:29;;;;;;;517.00;266.38;;;14.80;99.90;;;;;;8293045;28;20010;-63
2021/07/23 01:36:29;;;;;;;496.33;260.95;;;14.80;99.90;;;;;;8293364;28;20481;-63
2021/07/23 01:40:29;;;;;;;488.60;261.88;;;15.10;99.90;;;;;;8292533;28;20037;-63
2021/07/23 01:44:30;;;;;;;504.77;264.42;;;14.90;99.90;;;;;;8291690;28;20117;-63
2021/07/23 01:48:30;;;;;;;501.17;265.02;;;14.70;99.90;;;;;;8292769;28;20092;-63
2021/07/23 01:52:32;;;;;;;490.80;259.00;;;14.70;99.90;;;;;;8292803;28;20029;-63
2021/07/23 01:56:33;;;;;;;500.98;262.65;;;14.90;99.90;;;;;;8274794;28;20100;-63
2021/07/23 02:00:34;;;;;;;492.75;259.30;;;14.50;99.90;;;;;;8274959;28;20029;-63
2021/07/23 02:04:35;;;;;;;491.00;260.42;;;14.60;99.90;;;;;;8282763;28;20058;-63
2021/07/23 02:08:35;;;;;;;499.67;261.92;;;14.70;99.90;;;;;;8259551;28;20031;-63
2021/07/23 02:12:36;;;;;;;498.35;261.17;;;14.70;99.90;;;;;;8260141;28;20053;-63
2021/07/23 02:16:36;;;;;;;491.05;264.90;;;14.70;99.90;;;;;;8242892;28;20027;-63
2021/07/23 02:20:37;;;;;;;501.92;262.67;;;14.70;99.90;;;;;;8259405;28;20026;-63
2021/07/23 02:24:38;;;;;;;498.98;257.40;;;14.60;99.90;;;;;;8280825;28;20404;-62
2021/07/23 02:28:38;;;;;;;489.85;256.80;;;14.70;99.90;;;;;;8274858;28;20049;-63
2021/07/23 02:32:39;;;;;;;489.25;257.65;;;14.50;99.90;;;;;;8292155;28;20049;-62
2021/07/23 02:36:39;;;;;;;502.30;262.85;;;14.20;99.90;;;;;;8292091;28;20484;-63
2021/07/23 02:40:40;;;;;;;504.20;267.20;;;14.20;99.90;;;;;;8291716;28;20030;-63
2021/07/23 02:44:40;;;;;;;504.40;267.35;;;14.30;99.90;;;;;;8291966;28;20528;-63
2021/07/23 02:48:41;;;;;;;514.47;266.13;;;14.10;99.90;;;;;;8291777;28;20030;-63
2021/07/23 02:52:42;;;;;;;524.92;264.33;;;14.30;99.90;;;;;;8291871;28;20018;-63
2021/07/23 02:56:42;;;;;;;519.25;258.73;;;14.10;99.90;;;;;;8291732;28;20030;-63
2021/07/23 03:00:43;;;;;;;504.48;266.63;;;14.20;99.90;;;;;;8291302;28;20101;-63
2021/07/23 03:04:43;;;;;;;508.77;272.92;;;14.00;99.90;;;;;;8291622;28;20088;-63
2021/07/23 03:08:44;;;;;;;502.33;276.65;;;14.00;99.90;;;;;;8292754;28;20029;-63
2021/07/23 03:12:44;;;;;;;521.30;272.52;;;14.00;99.90;;;;;;8297373;28;20053;-63
2021/07/23 03:16:45;;;;;;;514.97;270.45;;;13.90;99.90;;;;;;8297415;28;20109;-63
2021/07/23 03:20:45;;;;;;;511.20;270.45;;;14.30;99.90;;;;;;8297043;28;20546;-63
2021/07/23 03:24:46;;;;;;;502.08;266.10;;;14.10;99.90;;;;;;8289927;28;20061;-63
2021/07/23 03:28:47;;;;;;;502.27;273.70;;;14.00;99.90;;;;;;8296740;28;20030;-63
2021/07/23 03:32:47;;;;;;;517.13;270.88;;;13.90;99.90;;;;;;8296095;28;20203;-63
2021/07/23 03:36:48;;;;;;;510.73;274.60;;;13.90;99.90;;;;;;8296708;28;20033;-63
2021/07/23 03:40:48;;;;;;;503.38;272.85;;;14.00;99.90;;;;;;8289734;28;20030;-63
2021/07/23 03:44:49;;;;;;;499.00;270.30;;;13.90;99.90;;;;;;8268828;28;20025;-63
2021/07/23 03:48:53;;;;;;;509.45;270.65;;;14.10;99.90;;;;;;8294779;28;20077;-63
2021/07/23 03:52:54;;;;;;;516.75;265.13;;;13.90;99.90;;;;;;8276086;28;20101;-63
2021/07/23 03:56:55;;;;;;;580.28;271.08;;;13.80;99.90;;;;;;8294972;28;20034;-63
2021/07/23 04:00:55;;;;;;;602.40;272.42;;;13.80;99.90;;;;;;8270174;28;20173;-63
2021/07/23 04:04:56;;;;;;;536.80;270.63;;;13.90;99.90;;;;;;8283157;28;20045;-63
2021/07/23 04:08:57;;;;;;;507.55;274.63;;;14.10;99.90;;;;;;8293625;28;20396;-64
2021/07/23 04:12:57;;;;;;;527.85;270.30;;;13.90;99.90;;;;;;8294080;28;20053;-63
2021/07/23 04:16:58;;;;;;;528.35;265.40;;;14.00;99.90;;;;;;8295224;28;20153;-63
2021/07/23 04:21:01;;;;;;;576.78;259.67;;;13.90;99.90;;;;;;8294980;28;20030;-63
2021/07/23 04:25:02;;;;;;;500.85;271.73;;;13.90;99.90;;;;;;8294191;28;20042;-64
2021/07/23 04:29:03;;;;;;;502.20;265.85;;;13.80;99.90;;;;;;8267149;28;20021;-63
2021/07/23 04:33:03;;;;;;;501.80;270.13;;;13.50;99.90;;;;;;8263132;28;20030;-63
2021/07/23 04:37:04;;;;;;;505.95;274.50;;;13.60;99.90;;;;;;8277284;28;20098;-63
2021/07/23 04:41:05;;;;;;;503.20;274.30;;;13.70;99.90;;;;;;8282635;28;20469;-69
2021/07/23 04:45:06;;;;;;;503.38;267.55;;;13.90;99.90;;;;;;8287579;28;21072;-69
2021/07/23 04:49:07;;;;;;;503.27;269.65;;;14.30;99.90;;;;;;8269598;28;20030;-69
2021/07/23 04:53:07;;;;;;;506.95;272.98;;;14.00;99.90;;;;;;8277109;28;20034;-69
2021/07/23 04:57:14;;;;;;;534.40;277.48;;;14.10;99.90;;;;;;8279884;28;20042;-70
2021/07/23 05:01:16;;;;;;;505.23;277.27;;;14.20;99.90;;;;;;8274548;28;20061;-70
2021/07/23 05:05:19;;;;;;;496.73;272.20;;;14.30;99.90;;;;;;8273357;28;20060;-70
2021/07/23 05:09:19;;;;;;;557.80;275.30;;;14.60;99.90;;;;;;8250253;28;20030;-69
2021/07/23 05:13:21;;;;;;;507.73;277.50;;;15.40;99.90;;;;;;8242975;28;20053;-70
2021/07/23 05:17:23;;;;;;;499.88;278.20;;;15.40;99.90;;;;;;8261304;28;20033;-70
2021/07/23 05:21:24;;;;;;;502.27;283.13;;;15.50;99.90;;;;;;8267508;28;20096;-70
2021/07/23 05:25:25;;;;;;;505.77;292.95;;;15.70;99.90;;;;;;8275308;28;20108;-70
2021/07/23 05:29:25;;;;;;;505.00;291.55;;;15.90;99.90;;;;;;8257735;28;20614;-71
2021/07/23 05:33:26;;;;;;;507.33;298.77;;;16.10;99.90;;;;;;8269962;28;20030;-70
2021/07/23 05:37:26;;;;;;;506.65;297.38;;;16.30;99.90;;;;;;8292704;28;20022;-70
2021/07/23 05:41:27;;;;;;;508.90;301.08;;;16.80;99.90;;;;;;8271137;28;20119;-70
2021/07/23 05:45:27;;;;;;;511.48;304.67;;;17.20;99.90;;;;;;8290674;28;20095;-70
2021/07/23 05:49:28;;;;;;;512.38;305.10;;;17.40;99.90;;;;;;8260333;28;20404;-70
2021/07/23 05:53:29;;;;;;;514.70;318.30;;;17.70;99.90;;;;;;8282102;28;20447;-70
2021/07/23 05:57:29;;;;;;;527.08;320.85;;;18.10;99.90;;;;;;8274799;28;20479;-70
2021/07/23 06:01:30;;;;;;;525.67;329.48;;;18.40;99.90;;;;;;8289210;28;20194;-70
2021/07/23 06:05:31;;;;;;;524.85;329.73;;;18.70;99.90;;;;;;8267979;28;20401;-70
2021/07/23 06:09:32;;;;;;;528.22;342.10;;;18.80;99.90;;;;;;8252787;28;20030;-70
2021/07/23 06:13:37;;;;;;;530.03;344.73;;;19.00;99.90;;;;;;8283887;28;20022;-70
2021/07/23 06:17:37;;;;;;;529.20;349.65;;;19.40;99.90;;;;;;8289225;28;20388;-70
2021/07/23 06:21:38;;;;;;;529.55;349.08;;;19.50;99.90;;;;;;8291255;28;20037;-70
2021/07/23 06:25:39;;;;;;;531.00;350.77;;;19.70;99.90;;;;;;8280746;28;20061;-70
2021/07/23 06:29:39;;;;;;;529.53;352.67;;;19.70;99.90;;;;;;8282255;28;20038;-70
2021/07/23 06:33:40;;;;;;;532.67;361.85;;;19.90;99.90;;;;;;8275427;28;20022;-70
2021/07/23 06:37:41;;;;;;;533.50;362.80;;;20.10;99.90;;;;;;8251087;28;20113;-71
2021/07/23 06:41:41;;;;;;;539.35;372.95;;;20.20;99.90;;;;;;8273636;28;20037;-65
2021/07/23 06:45:49;;;;;;;541.47;375.05;;;20.30;99.90;;;;;;8284903;28;20641;-65
2021/07/23 06:49:51;;;;;;;541.17;383.17;;;20.40;99.90;;;;;;8293970;28;20025;-65
2021/07/23 06:53:51;;;;;;;545.63;385.90;;;20.70;99.90;;;;;;8297065;28;20859;-66
2021/07/23 06:57:52;;;;;;;540.15;386.88;;;20.90;99.90;;;;;;8297017;28;20157;-65
2021/07/23 07:01:52;;;;;;;546.00;388.90;;;21.00;99.90;;;;;;8281027;28;20022;-65
2021/07/23 07:05:53;;;;;;;546.35;402.75;;;21.10;99.90;;;;;;8283207;28;20147;-66
2021/07/23 07:09:54;;;;;;;546.50;405.52;;;21.30;99.90;;;;;;8277342;28;20065;-66
2021/07/23 07:13:55;;;;;;;546.78;416.52;;;21.50;99.90;;;;;;8282919;28;20030;-66
2021/07/23 07:17:57;;;;;;;548.35;418.30;;;21.60;99.90;;;;;;8281186;28;20034;-65
2021/07/23 07:21:58;;;;;;;562.50;456.15;;;21.70;99.90;;;;;;8277811;28;20026;-65
2021/07/23 07:25:59;;;;;;;549.85;429.23;;;21.80;99.90;;;;;;8278572;28;20057;-65
2021/07/23 07:29:59;;;;;;;547.03;432.13;;;22.00;99.90;;;;;;8278788;28;20026;-65
2021/07/23 07:34:00;;;;;;;548.72;435.90;;;22.10;99.90;;;;;;8286955;28;20026;-65
2021/07/23 07:38:00;;;;;;;548.72;426.88;;;22.10;99.90;;;;;;8279829;28;20613;-65
2021/07/23 07:42:02;;;;;;;544.25;419.65;;;21.90;99.90;;;;;;8278286;28;20039;-65
2021/07/23 07:46:03;;;;;;;546.80;414.13;;;21.90;99.90;;;;;;8258229;28;20488;-65
2021/07/23 07:50:04;;;;;;;547.90;421.08;;;21.90;99.90;;;;;;8275639;28;20037;-66
2021/07/23 07:54:05;;;;;;;550.25;425.88;;;22.00;99.90;;;;;;8287073;28;20396;-65
2021/07/23 07:58:06;;;;;;;546.83;433.05;;;22.30;99.90;;;;;;8280967;28;20058;-65
2021/07/23 08:02:10;;;;;;;551.53;444.77;;;22.50;99.90;;;;;;8277382;28;20059;-65
2021/07/23 08:06:20;;;;;;;556.35;457.67;;;22.80;99.90;;;;;;8290353;28;20033;-65
2021/07/23 08:10:24;;;;;;;553.90;460.55;;;22.90;99.90;;;;;;8263386;28;20745;-66
2021/07/23 08:14:24;;;;;;;553.47;464.38;;;23.10;99.90;;;;;;8288262;28;20020;-66
2021/07/23 08:18:25;;;;;;;554.83;473.40;;;23.30;99.90;;;;;;8279065;28;20034;-65
2021/07/23 08:22:26;;;;;;;554.53;473.98;;;23.70;99.90;;;;;;8292932;28;20104;-65
2021/07/23 08:26:26;;;;;;;551.17;467.25;;;23.80;99.90;;;;;;8295107;28;20030;-65
2021/07/23 08:30:27;;;;;;;555.90;483.25;;;23.70;99.90;;;;;;8294413;28;20038;-66
2021/07/23 08:34:27;;;;;;;552.60;474.92;;;23.90;99.90;;;;;;8292800;28;20056;-65
2021/07/23 08:38:28;;;;;;;552.20;475.17;;;23.80;99.90;;;;;;8288568;28;20041;-65
2021/07/23 08:42:30;;;;;;;555.75;482.10;;;23.80;99.90;;;;;;8272081;28;20034;-66
2021/07/23 08:46:31;;;;;;;553.38;480.80;;;24.20;99.90;;;;;;8247635;28;20036;-66
2021/07/23 08:50:32;;;;;;;555.72;491.83;;;24.30;99.90;;;;;;8286566;28;20022;-66
2021/07/23 08:54:33;;;;;;;560.60;498.65;;;24.50;99.90;;;;;;8266586;28;20052;-65
2021/07/23 08:58:36;;;;;;;563.65;501.73;;;24.70;99.90;;;;;;8285722;28;20061;-66
2021/07/23 09:02:57;;;;;;;568.25;506.13;;;24.90;99.90;;;;;;8243724;28;20030;-66
2021/07/23 09:07:18;;;;;;;571.80;509.65;;;25.10;99.90;;;;;;8277606;28;20038;-66
2021/07/23 09:11:28;;;;;;;;;;;24.80;99.90;;;;;;8254374;28;20524;-66
2021/07/23 09:15:37;;;;;;;577.00;514.67;;;24.80;99.90;;;;;;8268906;28;19913;-66
2021/07/23 09:19:38;;;;;;;574.22;511.85;;;25.00;99.90;;;;;;8282276;28;20036;-66
2021/07/23 09:23:40;;;;;;;581.65;519.58;;;25.20;99.90;;;;;;8286464;28;20105;-65
2021/07/23 09:27:41;;;;;;;596.33;533.75;;;25.30;99.90;;;;;;8283420;28;20523;-65
2021/07/23 09:32:07;;;;;;;600.83;538.25;;;25.60;99.90;;;;;;8264792;28;20034;-66
2021/07/23 09:36:10;;;;;;;601.55;539.05;;;25.70;99.90;;;;;;8250784;28;20031;-65
2021/07/23 09:40:12;;;;;;;603.95;541.15;;;25.60;99.90;;;;;;8277693;28;20513;-66
2021/07/23 09:44:18;;;;;;;609.88;547.22;;;25.60;99.90;;;;;;8292240;28;20034;-66
2021/07/23 09:48:18;;;;;;;613.90;551.17;;;26.00;99.90;;;;;;8248815;28;20033;-66
2021/07/23 09:52:21;;;;;;;618.90;556.08;;;25.90;99.90;;;;;;8263065;28;20042;-66
2021/07/23 09:56:24;;;;;;;641.50;577.60;;;26.20;99.90;;;;;;8266344;28;20019;-66
2021/07/23 10:00:26;;;;;;;640.42;576.83;;;26.70;99.90;;;;;;8270099;28;20033;-65
2021/07/23 10:05:01;;;;;;;626.13;562.95;;;27.00;99.90;;;;;;8279922;28;20030;-65
2021/07/23 10:09:09;;;;;;;626.50;563.60;;;26.20;99.90;;;;;;8266719;28;20049;-66
2021/07/23 10:13:10;;;;;;;643.45;579.88;;;26.40;99.90;;;;;;8291025;28;20026;-66
2021/07/23 10:17:11;;;;;;;657.97;593.72;;;27.00;99.90;;;;;;8292463;28;20110;-66
2021/07/23 10:21:12;;;;;;;649.72;586.13;;;27.60;99.90;;;;;;8270243;28;20522;-66
2021/07/23 10:25:12;;;;;;;660.72;597.03;;;27.70;99.90;;;;;;8279090;28;20113;-66
2021/07/23 10:29:13;;;;;;;674.35;610.25;;;27.80;99.90;;;;;;8265676;28;20110;-66
2021/07/23 10:34:12;;;;;;;687.53;623.05;;;28.00;99.90;;;;;;8252041;28;20021;-66
2021/07/23 10:38:21;;;;;;;702.05;637.35;;;28.60;99.90;;;;;;8185021;28;20073;-66
2021/07/23 10:42:25;;;;;;;706.30;641.30;;;29.10;99.90;;;;;;8261933;28;20030;-66
2021/07/23 10:46:47;;;;;;;712.28;647.38;;;29.00;99.90;;;;;;8278633;28;20050;-66
2021/07/23 10:50:48;;;;;;;709.22;644.40;;;29.10;99.90;;;;;;8267134;28;20057;-65
2021/07/23 10:55:16;;;;;;;686.17;621.92;;;28.80;99.90;;;;;;8262122;28;20034;-65
2021/07/23 10:59:41;;;;;;;681.88;617.60;;;28.10;99.90;;;;;;8283560;28;20037;-65
2021/07/23 11:03:43;;;;;;;696.05;631.85;;;28.40;99.90;;;;;;8289755;28;20037;-66
2021/07/23 11:07:45;;;;;;;715.50;650.63;;;29.40;99.90;;;;;;8283664;28;20125;-66
2021/07/23 11:11:45;;;;;;;735.42;669.85;;;30.30;99.90;;;;;;8286108;28;20112;-66
2021/07/23 11:15:46;;;;;;;742.88;677.17;;;30.90;99.90;;;;;;8263548;28;20100;-66
2021/07/23 11:19:56;;;;;;;758.58;692.55;;;31.20;96.90;;;;;;8262647;28;20084;-66
2021/07/23 11:23:57;;;;;;;758.92;692.83;;;31.70;96.80;;;;;;8265648;28;20034;-66
2021/07/23 11:28:03;;;;;;;762.63;696.88;;;31.80;95.60;;;;;;8269676;28;20109;-66
2021/07/23 11:32:07;;;;;;;758.80;692.97;;;32.50;93.40;;;;;;8278212;28;20033;-66
2021/07/23 11:36:07;;;;;;;798.40;731.03;;;33.70;90.20;;;;;;8266058;28;20061;-66
2021/07/23 11:40:09;;;;;;;761.22;692.97;;;36.50;79.80;;;;;;8279438;28;20040;-66
2021/07/23 11:44:10;;;;;;;976.40;900.17;;;38.70;70.80;;;;;;8264344;28;20036;-67
2021/07/23 11:48:18;;;;;;;1006.47;929.13;;;40.70;57.00;;;;;;8290625;28;20786;-67
2021/07/23 11:52:20;;;;;;;973.70;898.58;;;41.70;50.60;;;;;;8279427;28;20053;-67
2021/07/23 11:56:32;;;;;;;11.05;9.95;;;43.40;46.40;;;;;;8283096;28;20026;-67
2021/07/23 12:00:33;;;;;;;10.70;9.60;;;42.90;43.70;;;;;;8277857;28;20022;-66
2021/07/23 12:04:33;;;;;;;12.65;10.32;;;41.10;41.80;;;;;;8282866;28;20104;-66
2021/07/23 12:08:43;;;;;;;945.90;873.05;;;39.60;44.60;;;;;;8280725;28;20023;-66
2021/07/23 12:12:43;;;;;;;852.30;783.23;;;37.30;46.90;;;;;;8273398;28;20018;-66
2021/07/23 12:16:45;;;;;;;853.45;783.70;;;35.70;51.80;;;;;;8281035;28;20292;-66
2021/07/23 12:20:45;;;;;;;886.97;815.75;;;33.70;55.30;;;;;;8278774;28;20626;-66
2021/07/23 12:24:46;;;;;;;889.08;818.13;;;33.00;61.70;;;;;;8284144;28;20108;-66
2021/07/23 12:28:54;;;;;;;600.65;538.58;;;34.30;57.80;;;;;;8279032;28;20038;-66
2021/07/23 12:33:27;;;;;;;82.65;77.97;;;34.20;57.10;;;;;;8281667;28;20041;-66
2021/07/23 12:37:28;;;;;;;550.58;490.88;;;34.60;57.20;;;;;;8287098;28;20141;-65
2021/07/23 12:41:30;;;;;;;845.03;775.25;;;33.30;57.70;;;;;;8262573;28;20034;-66
2021/07/23 12:45:33;;;;;;;648.03;584.20;;;33.80;58.80;;;;;;8262502;28;20037;-66
2021/07/23 12:49:39;;;;;;;618.03;556.60;;;34.30;54.80;;;;;;8277358;28;20027;-66
2021/07/23 12:53:43;;;;;;;770.97;702.67;;;34.80;54.20;;;;;;8263702;28;20069;-66
2021/07/23 12:57:43;;;;;;;980.55;904.60;;;36.80;56.80;;;;;;8275937;28;20025;-66
2021/07/23 13:01:44;;;;;;;1004.35;927.30;;;39.80;51.60;;;;;;8292029;28;20064;-66
2021/07/23 13:05:45;;;;;;;1014.63;937.13;;;41.70;44.80;;;;;;8284497;28;20048;-66
2021/07/23 13:09:46;;;;;;;1034.90;956.47;;;42.50;44.60;;;;;;8278103;28;20100;-66
2021/07/23 13:13:47;;;;;;;1035.45;957.13;;;42.70;42.00;;;;;;8287422;28;20489;-66
2021/07/23 13:17:48;;;;;;;1047.72;968.80;;;42.10;40.60;;;;;;8284546;28;20034;-66
2021/07/23 13:21:49;;;;;;;927.47;853.95;;;43.50;41.10;;;;;;8276944;28;20026;-66
2021/07/23 13:25:50;;;;;;;34.20;21.85;;;44.20;38.50;;;;;;8285826;28;20032;-66
2021/07/23 13:29:51;;;;;;;10.77;9.68;;;44.60;38.10;;;;;;8266418;28;20084;-66
2021/07/23 13:33:52;;;;;;;11.13;9.57;;;46.10;34.80;;;;;;8269567;28;20018;-67
2021/07/23 13:37:54;;;;;;;13.52;10.27;;;45.10;34.10;;;;;;8277543;28;20516;-66
2021/07/23 13:41:58;;;;;;;11.23;9.38;;;41.20;38.10;;;;;;8280380;28;20048;-66
2021/07/23 13:45:58;;;;;;;14.63;9.77;;;39.10;41.10;;;;;;8288150;28;20026;-66
2021/07/23 13:50:00;;;;;;;661.67;601.35;;;37.90;44.00;;;;;;8279489;28;20856;-66
2021/07/23 13:54:01;;;;;;;798.97;730.92;;;39.80;41.30;;;;;;8275621;28;20040;-66
2021/07/23 13:58:05;;;;;;;890.75;820.42;;;41.60;38.90;;;;;;8278151;28;20108;-66
2021/07/23 14:02:05;;;;;;;994.10;919.53;;;43.90;36.10;;;;;;8265375;28;20014;-66
2021/07/23 14:06:06;;;;;;;988.10;913.55;;;44.80;34.10;;;;;;8276467;28;20038;-66
2021/07/23 14:10:08;;;;;;;947.55;872.42;;;43.50;34.20;;;;;;8275223;28;20042;-66
2021/07/23 14:14:08;;;;;;;1007.97;932.10;;;42.50;36.60;;;;;;8269113;28;20028;-67
2021/07/23 14:18:09;;;;;;;1002.33;923.85;;;45.10;34.70;;;;;;8275258;28;20029;-66
2021/07/23 14:22:09;;;;;;;1016.80;936.33;;;45.80;34.70;;;;;;8265508;28;20033;-67
2021/07/23 14:26:10;;;;;;;1071.40;990.30;;;47.30;33.50;;;;;;8281356;28;20018;-67
2021/07/23 14:30:11;;;;;;;1085.68;999.90;;;48.30;29.90;;;;;;8278688;28;20527;-67
2021/07/23 14:34:11;;;;;;;1060.57;980.40;;;45.80;30.40;;;;;;8275913;28;20121;-66
2021/07/23 14:38:12;;;;;;;1069.30;989.40;;;44.80;32.80;;;;;;8256830;28;20022;-66
2021/07/23 14:42:13;;;;;;;1030.35;952.25;;;43.70;32.00;;;;;;8266284;28;20102;-66
2021/07/23 14:46:13;;;;;;;1022.38;944.78;;;39.30;36.60;;;;;;8260187;28;20027;-66
2021/07/23 14:50:14;;;;;;;1010.42;933.22;;;39.80;36.90;;;;;;8275720;28;20041;-66
2021/07/23 14:54:15;;;;;;;1018.38;940.75;;;38.50;39.40;;;;;;8285562;28;20101;-66
2021/07/23 14:58:15;;;;;;;1031.90;953.45;;;39.80;35.70;;;;;;8264751;28;20068;-67
2021/07/23 15:02:16;;;;;;;1023.20;944.92;;;39.20;36.00;;;;;;8277453;28;20037;-66
2021/07/23 15:06:20;;;;;;;999.03;921.97;;;36.80;38.80;;;;;;8270908;28;20026;-66
2021/07/23 15:10:20;;;;;;;1003.15;926.03;;;35.60;40.70;;;;;;8271598;28;20045;-66
2021/07/23 15:14:21;;;;;;;1026.57;948.15;;;36.60;42.10;;;;;;8293901;28;20030;-67
2021/07/23 15:18:24;;;;;;;996.35;921.40;;;38.50;39.90;;;;;;8264935;28;20129;-67
2021/07/23 15:22:26;;;;;;;1068.38;988.72;;;41.20;39.10;;;;;;8253937;28;20025;-67
2021/07/23 15:26:26;;;;;;;1072.38;989.53;;;43.60;33.50;;;;;;8251373;28;20037;-67
2021/07/23 15:30:27;;;;;;;1120.00;999.90;;;44.40;36.10;;;;;;8274558;28;20026;-67
2021/07/23 15:34:30;;;;;;;1107.82;999.90;;;45.10;34.90;;;;;;8279482;28;20029;-67
2021/07/23 15:38:31;;;;;;;1112.28;999.90;;;46.00;33.50;;;;;;8296834;28;20034;-67
2021/07/23 15:42:31;;;;;;;1125.07;999.90;;;46.80;33.80;;;;;;8265724;28;20029;-67
2021/07/23 15:46:32;;;;;;;1131.32;999.90;;;47.80;31.40;;;;;;8264256;28;20428;-67
2021/07/23 15:50:37;;;;;;;1119.40;999.90;;;48.80;30.40;;;;;;8246008;28;20061;-67
2021/07/23 15:54:37;;;;;;;1106.45;999.90;;;48.60;27.50;;;;;;8267183;28;20034;-67
2021/07/23 15:58:38;;;;;;;1108.50;999.90;;;46.30;30.10;;;;;;8288663;28;20029;-67
2021/07/23 16:02:39;;;;;;;1112.07;999.90;;;44.90;31.20;;;;;;8264486;28;20060;-67
2021/07/23 16:06:40;;;;;;;1116.05;999.90;;;45.20;31.40;;;;;;8266855;28;20031;-67
2021/07/23 16:10:40;;;;;;;1126.47;999.90;;;46.50;30.80;;;;;;8266193;28;20033;-67
2021/07/23 16:14:41;;;;;;;1084.55;998.15;;;46.40;31.00;;;;;;8295395;28;20484;-67
2021/07/23 16:18:41;;;;;;;1096.43;999.90;;;45.80;29.60;;;;;;8288672;28;20035;-67
2021/07/23 16:22:42;;;;;;;1085.50;998.70;;;43.80;32.50;;;;;;8270008;28;20045;-67
2021/07/23 16:26:44;;;;;;;1122.10;999.90;;;44.40;32.00;;;;;;8289393;28;20026;-67
2021/07/23 16:30:44;;;;;;;1092.00;999.90;;;46.50;31.30;;;;;;8262535;28;20030;-67
2021/07/23 16:34:46;;;;;;;1087.60;999.53;;;46.90;30.40;;;;;;8283898;28;20030;-67
2021/07/23 16:38:47;;;;;;;1111.35;999.90;;;43.80;31.80;;;;;;8261376;28;20036;-67
2021/07/23 16:42:47;;;;;;;1124.85;999.90;;;42.50;34.00;;;;;;8287549;28;20042;-67
2021/07/23 16:46:48;;;;;;;1127.90;999.90;;;43.00;35.30;;;;;;8276708;28;20088;-67
2021/07/23 16:50:48;;;;;;;1130.72;999.90;;;44.20;33.20;;;;;;8284340;28;20763;-67
2021/07/23 16:54:50;;;;;;;1129.38;999.90;;;44.60;32.10;;;;;;8292969;28;20448;-67
2021/07/23 16:58:50;;;;;;;1123.78;999.90;;;44.40;33.70;;;;;;8288233;28;20401;-67
2021/07/23 17:02:51;;;;;;;1107.55;999.90;;;45.40;34.60;;;;;;8282493;28;20034;-67
2021/07/23 17:06:51;;;;;;;1098.95;999.90;;;45.90;32.90;;;;;;8271537;28;20046;-67
2021/07/23 17:10:53;;;;;;;1103.20;999.90;;;45.80;31.80;;;;;;8267142;28;20096;-67
2021/07/23 17:14:53;;;;;;;1088.85;999.90;;;45.50;33.10;;;;;;8259376;28;20076;-67
2021/07/23 17:18:54;;;;;;;1056.00;977.53;;;43.00;35.40;;;;;;8275599;28;20120;-66
2021/07/23 17:22:54;;;;;;;1015.08;938.70;;;39.50;39.80;;;;;;8283626;28;20510;-67
2021/07/23 17:26:55;;;;;;;1070.38;989.33;;;37.90;41.60;;;;;;8283801;28;20088;-66
2021/07/23 17:30:55;;;;;;;1038.72;959.53;;;35.80;45.40;;;;;;8268165;28;20040;-66
2021/07/23 17:34:56;;;;;;;1004.65;927.22;;;33.80;48.80;;;;;;8266823;28;20036;-66
2021/07/23 17:38:57;;;;;;;983.53;906.55;;;32.80;52.60;;;;;;8288201;28;20083;-66
2021/07/23 17:42:57;;;;;;;947.78;872.80;;;32.20;53.40;;;;;;8260085;28;20029;-66
2021/07/23 17:46:58;;;;;;;921.17;847.10;;;30.70;57.90;;;;;;8261742;28;20037;-66
2021/07/23 17:50:59;;;;;;;911.63;836.83;;;29.70;62.40;;;;;;8278733;28;20158;-66
2021/07/23 17:55:00;;;;;;;886.83;812.72;;;28.90;62.60;;;;;;8277240;28;20097;-66
2021/07/23 17:59:00;;;;;;;855.00;782.47;;;28.30;65.30;;;;;;8274324;28;20484;-66
2021/07/23 18:03:01;;;;;;;820.20;749.13;;;27.70;67.20;;;;;;8274705;28;20027;-66
2021/07/23 18:07:04;;;;;;;779.17;710.35;;;27.60;69.50;;;;;;8274714;28;20169;-66
2021/07/23 18:11:05;;;;;;;828.63;756.75;;;27.20;69.40;;;;;;8282622;28;20029;-66
2021/07/23 18:15:06;;;;;;;804.40;733.22;;;26.80;71.80;;;;;;8266865;28;20046;-66
2021/07/23 18:19:07;;;;;;;794.10;723.00;;;26.70;75.70;;;;;;8242329;28;20042;-66
2021/07/23 18:23:07;;;;;;;778.05;703.78;;;26.40;76.70;;;;;;8264088;28;20627;-68
2021/07/23 18:27:09;;;;;;;784.50;714.20;;;26.30;77.50;;;;;;8276107;28;20084;-66
2021/07/23 18:31:09;;;;;;;751.95;682.55;;;26.00;79.70;;;;;;8262604;28;20596;-66
2021/07/23 18:35:10;;;;;;;747.05;677.85;;;25.80;80.80;;;;;;8276586;28;20101;-67
2021/07/23 18:39:11;;;;;;;740.85;671.63;;;25.60;83.90;;;;;;8290008;28;20057;-66
2021/07/23 18:43:11;;;;;;;669.17;603.17;;;25.50;86.20;;;;;;8275859;28;20516;-66
2021/07/23 18:47:12;;;;;;;686.40;619.65;;;25.30;88.20;;;;;;8290708;28;20030;-66
2021/07/23 18:51:16;;;;;;;669.60;602.85;;;25.00;88.80;;;;;;8280229;28;20065;-67
2021/07/23 18:55:17;;;;;;;640.15;574.65;;;24.60;90.70;;;;;;8280812;28;20033;-65
2021/07/23 18:59:18;;;;;;;688.08;620.42;;;24.40;91.70;;;;;;8298389;28;20038;-67
2021/07/23 19:03:18;;;;;;;642.00;576.08;;;24.10;92.10;;;;;;8297123;28;20580;-67
2021/07/23 19:07:21;;;;;;;693.03;624.45;;;23.90;94.00;;;;;;8288759;28;20057;-67
2021/07/23 19:11:21;;;;;;;689.97;621.45;;;23.70;97.30;;;;;;8273263;28;20026;-65
2021/07/23 19:15:22;;;;;;;676.13;608.13;;;23.40;99.90;;;;;;8296363;28;20104;-68
2021/07/23 19:19:22;;;;;;;655.88;588.72;;;23.10;99.90;;;;;;8271195;28;20026;-67
2021/07/23 19:23:23;;;;;;;630.72;564.92;;;22.80;99.90;;;;;;8285602;28;20038;-68
2021/07/23 19:27:24;;;;;;;607.83;542.85;;;22.50;99.90;;;;;;8284892;28;20036;-64
2021/07/23 19:31:24;;;;;;;609.20;544.30;;;22.40;99.90;;;;;;8293898;28;20022;-64
2021/07/23 19:35:25;;;;;;;605.65;540.53;;;22.20;99.90;;;;;;8305430;28;20029;-64
2021/07/23 19:39:27;;;;;;;598.22;533.30;;;22.00;99.90;;;;;;8294053;28;20120;-64
2021/07/23 19:43:28;;;;;;;595.25;530.08;;;21.80;99.90;;;;;;8260682;28;20034;-64
2021/07/23 19:47:29;;;;;;;593.20;527.92;;;21.50;99.90;;;;;;8280410;28;20022;-63
2021/07/23 19:51:29;;;;;;;574.63;499.75;;;21.60;99.90;;;;;;8278776;28;20030;-64
2021/07/23 19:55:30;;;;;;;563.55;477.35;;;21.40;99.90;;;;;;8279584;28;20057;-64